createdAt,value
2019-04-13T00:01:24.642Z,18.47
2019-04-13T00:03:52.744Z,18.20
2019-04-13T00:06:35.454Z,17.90
2019-04-13T00:09:05.435Z,17.33
2019-04-13T00:11:52.646Z,19.83
2019-04-13T00:14:21.364Z,18.07
2019-04-13T00:16:49.464Z,16.97
2019-04-13T00:19:17.848Z,16.47
2019-04-13T00:21:46.318Z,15.67
2019-04-13T00:24:14.403Z,16.27
2019-04-13T00:26:42.473Z,18.90
2019-04-13T00:29:10.586Z,16.87
2019-04-13T00:31:38.799Z,17.43
2019-04-13T00:34:06.986Z,19.13
2019-04-13T00:36:35.042Z,19.73
2019-04-13T00:39:06.503Z,17.07
2019-04-13T00:41:35.306Z,16.40
2019-04-13T00:44:03.434Z,15.20
2019-04-13T00:46:31.464Z,15.83
2019-04-13T00:49:00.570Z,16.97
2019-04-13T00:51:28.643Z,15.07
2019-04-13T00:53:56.744Z,15.93
2019-04-13T00:56:24.847Z,14.83
2019-04-13T00:58:52.910Z,16.93
2019-04-13T01:01:21.020Z,19.57
2019-04-13T01:03:49.128Z,15.80
2019-04-13T01:06:17.236Z,17.30
2019-04-13T01:08:45.396Z,19.00
2019-04-13T01:11:13.774Z,16.97
2019-04-13T01:13:41.829Z,21.63
2019-04-13T01:16:09.926Z,16.97
2019-04-13T01:18:38.104Z,18.07
2019-04-13T01:21:06.156Z,14.10
2019-04-13T01:23:34.256Z,15.43
2019-04-13T01:26:02.324Z,14.93
2019-04-13T01:28:30.415Z,14.27
2019-04-13T01:30:58.489Z,14.20
2019-04-13T01:33:26.551Z,15.13
2019-04-13T01:35:54.678Z,14.67
2019-04-13T01:38:22.737Z,13.40
2019-04-13T01:40:51.053Z,13.87
2019-04-13T01:43:19.172Z,16.87
2019-04-13T01:45:47.247Z,14.27
2019-04-13T01:48:15.408Z,14.37
2019-04-13T01:50:43.420Z,14.40
2019-04-13T01:53:11.676Z,14.67
2019-04-13T01:55:39.769Z,15.23
2019-04-13T01:58:07.839Z,13.20
2019-04-13T02:00:53.980Z,15.67
2019-04-13T02:03:22.663Z,14.13
2019-04-13T02:06:04.818Z,14.60
2019-04-13T02:09:07.214Z,17.13
2019-04-13T02:11:38.318Z,13.17
2019-04-13T02:14:06.665Z,14.63
2019-04-13T02:16:34.750Z,16.30
2019-04-13T02:19:02.817Z,14.97
2019-04-13T02:21:30.903Z,16.07
2019-04-13T02:23:58.963Z,16.83
2019-04-13T02:26:27.050Z,15.33
2019-04-13T02:28:55.152Z,14.63
2019-04-13T02:31:23.713Z,15.33
2019-04-13T02:33:51.803Z,13.43
2019-04-13T02:36:19.911Z,16.57
2019-04-13T02:38:48.013Z,15.30
2019-04-13T02:41:16.156Z,15.77
2019-04-13T02:43:44.261Z,17.80
2019-04-13T02:46:12.546Z,17.07
2019-04-13T02:48:40.621Z,17.90
2019-04-13T02:51:09.305Z,15.70
2019-04-13T02:53:37.456Z,17.80
2019-04-13T02:56:05.535Z,16.47
2019-04-13T02:58:33.848Z,21.03
2019-04-13T03:01:01.960Z,19.57
2019-04-13T03:03:30.866Z,17.33
2019-04-13T03:05:58.920Z,18.13
2019-04-13T03:08:27.052Z,19.23
2019-04-13T03:10:55.133Z,18.10
2019-04-13T03:13:23.228Z,18.77
2019-04-13T03:16:16.401Z,18.77
2019-04-13T03:19:22.270Z,17.40
2019-04-13T03:21:50.666Z,19.57
2019-04-13T03:24:18.826Z,18.77
2019-04-13T03:26:47.982Z,19.63
2019-04-13T03:29:16.074Z,21.23
2019-04-13T03:31:44.169Z,22.60
2019-04-13T03:34:12.267Z,19.97
2019-04-13T03:36:40.336Z,20.73
2019-04-13T03:39:08.682Z,22.03
2019-04-13T03:41:37.163Z,21.70
2019-04-13T03:44:05.626Z,23.87
2019-04-13T03:46:33.760Z,22.43
2019-04-13T03:49:01.830Z,21.60
2019-04-13T03:51:29.946Z,23.83
2019-04-13T03:53:58.038Z,24.90
2019-04-13T03:56:26.168Z,26.83
2019-04-13T03:58:54.421Z,24.30
2019-04-13T04:01:22.839Z,22.83
2019-04-13T04:03:50.936Z,24.57
2019-04-13T04:06:19.047Z,24.60
2019-04-13T04:08:47.254Z,22.03
2019-04-13T04:11:15.329Z,23.63
2019-04-13T04:13:43.411Z,25.33
2019-04-13T04:16:11.598Z,24.53
2019-04-13T04:18:39.678Z,25.93
2019-04-13T04:21:07.808Z,26.37
2019-04-13T04:23:35.929Z,24.57
2019-04-13T04:26:05.170Z,24.00
2019-04-13T04:28:33.284Z,27.17
2019-04-13T04:31:01.347Z,25.13
2019-04-13T04:33:29.513Z,26.93
2019-04-13T04:35:57.585Z,27.53
2019-04-13T04:38:25.714Z,24.30
2019-04-13T04:40:53.834Z,30.17
2019-04-13T04:43:21.975Z,26.40
2019-04-13T04:45:49.986Z,26.83
2019-04-13T04:48:18.088Z,27.30
2019-04-13T04:50:46.176Z,27.77
2019-04-13T04:53:14.330Z,29.00
2019-04-13T04:55:42.446Z,25.57
2019-04-13T04:58:10.746Z,26.53
2019-04-13T05:00:38.825Z,28.07
2019-04-13T05:03:06.896Z,26.80
2019-04-13T05:05:34.968Z,28.23
2019-04-13T05:08:10.957Z,28.30
2019-04-13T05:10:32.769Z,24.37
2019-04-13T05:13:00.826Z,27.23
2019-04-13T05:15:28.967Z,25.07
2019-04-13T05:17:57.025Z,25.23
2019-04-13T05:20:25.091Z,27.80
2019-04-13T05:22:53.172Z,24.97
2019-04-13T05:25:21.247Z,28.53
2019-04-13T05:27:49.335Z,28.83
2019-04-13T05:30:18.402Z,26.70
2019-04-13T05:32:46.608Z,29.27
2019-04-13T05:35:15.094Z,26.77
2019-04-13T05:37:43.151Z,30.57
2019-04-13T05:40:11.469Z,28.70
2019-04-13T05:42:39.557Z,28.27
2019-04-13T05:45:07.869Z,26.10
2019-04-13T05:47:36.154Z,26.27
2019-04-13T05:50:04.443Z,27.50
2019-04-13T05:52:32.504Z,26.50
2019-04-13T05:55:00.613Z,25.17
2019-04-13T05:57:28.688Z,28.20
2019-04-13T05:59:56.812Z,26.00
2019-04-13T06:02:24.981Z,27.73
2019-04-13T06:04:53.047Z,26.07
2019-04-13T06:07:21.243Z,29.50
2019-04-13T06:09:49.325Z,25.97
2019-04-13T06:12:17.426Z,27.37
2019-04-13T06:14:45.534Z,25.60
2019-04-13T06:17:13.638Z,22.97
2019-04-13T06:19:41.745Z,25.13
2019-04-13T06:22:09.804Z,21.07
2019-04-13T06:24:37.909Z,21.73
2019-04-13T06:27:05.974Z,22.10
2019-04-13T06:29:34.072Z,20.00
2019-04-13T06:32:09.359Z,21.30
2019-04-13T06:34:56.481Z,21.03
2019-04-13T06:37:24.555Z,22.07
2019-04-13T06:39:52.619Z,18.00
2019-04-13T06:42:20.952Z,20.37
2019-04-13T06:44:49.131Z,19.90
2019-04-13T06:47:17.251Z,20.77
2019-04-13T06:49:45.488Z,19.37
2019-04-13T06:52:13.612Z,19.27
2019-04-13T06:54:43.085Z,19.70
2019-04-13T06:57:11.455Z,20.03
2019-04-13T06:59:39.920Z,19.87
2019-04-13T07:02:08.453Z,19.93
2019-04-13T07:04:40.323Z,17.03
2019-04-13T07:07:11.396Z,18.67
2019-04-13T07:09:42.231Z,17.90
2019-04-13T07:12:35.608Z,18.27
2019-04-13T07:15:04.096Z,17.73
2019-04-13T07:17:33.224Z,20.77
2019-04-13T07:20:01.293Z,18.17
2019-04-13T07:22:29.384Z,15.80
2019-04-13T07:24:59.049Z,17.00
2019-04-13T07:27:28.160Z,21.53
2019-04-13T07:29:56.318Z,13.13
2019-04-13T07:32:24.391Z,15.70
2019-04-13T07:34:52.462Z,15.87
2019-04-13T07:37:20.594Z,16.33
2019-04-13T07:39:48.937Z,17.10
2019-04-13T07:42:17.057Z,12.27
2019-04-13T07:45:13.336Z,15.13
2019-04-13T07:47:50.773Z,17.80
2019-04-13T07:50:36.999Z,16.43
2019-04-13T07:53:08.293Z,16.03
2019-04-13T07:55:36.586Z,17.43
2019-04-13T07:58:05.024Z,14.17
2019-04-13T08:00:33.649Z,13.80
2019-04-13T08:03:01.980Z,12.50
2019-04-13T08:05:30.047Z,11.63
2019-04-13T08:07:58.250Z,13.63
2019-04-13T08:10:26.444Z,11.50
2019-04-13T08:12:54.531Z,11.20
2019-04-13T08:15:22.613Z,13.33
2019-04-13T08:17:53.549Z,11.60
2019-04-13T08:20:39.383Z,11.50
2019-04-13T08:23:08.685Z,10.03
2019-04-13T08:26:16.125Z,12.87
2019-04-13T08:28:45.758Z,12.40
2019-04-13T08:31:14.972Z,10.70
2019-04-13T08:33:44.118Z,10.03
2019-04-13T08:36:13.315Z,11.07
2019-04-13T08:38:42.486Z,13.97
2019-04-13T08:41:12.186Z,11.40
2019-04-13T08:43:41.746Z,10.23
2019-04-13T08:46:11.116Z,10.60
2019-04-13T08:48:41.212Z,12.10
2019-04-13T08:51:10.652Z,12.83
2019-04-13T08:53:39.797Z,11.23
2019-04-13T08:56:09.006Z,10.97
2019-04-13T08:58:39.333Z,9.73
2019-04-13T09:01:08.604Z,10.23
2019-04-13T09:03:38.024Z,11.03
2019-04-13T09:06:07.186Z,9.80
2019-04-13T09:08:36.793Z,11.93
2019-04-13T09:11:08.409Z,10.00
2019-04-13T09:13:37.885Z,10.57
2019-04-13T09:16:08.651Z,11.17
2019-04-13T09:18:59.046Z,11.10
2019-04-13T09:21:34.020Z,10.63
2019-04-13T09:24:05.688Z,10.33
2019-04-13T09:26:36.623Z,10.67
2019-04-13T09:29:06.040Z,13.20
2019-04-13T09:31:35.233Z,14.03
2019-04-13T09:34:04.650Z,10.67
2019-04-13T09:36:33.802Z,11.03
2019-04-13T09:39:02.971Z,14.63
2019-04-13T09:41:33.823Z,14.27
2019-04-13T09:44:17.340Z,11.37
2019-04-13T09:46:47.293Z,10.83
2019-04-13T09:49:19.536Z,8.77
2019-04-13T09:51:47.644Z,10.47
2019-04-13T09:54:16.845Z,8.07
2019-04-13T09:56:45.995Z,8.70
2019-04-13T09:59:15.190Z,9.77
2019-04-13T10:01:45.427Z,10.23
2019-04-13T10:04:14.695Z,12.10
2019-04-13T10:06:44.275Z,13.37
2019-04-13T10:09:13.447Z,12.27
2019-04-13T10:12:06.251Z,11.27
2019-04-13T10:14:54.359Z,11.53
2019-04-13T10:17:37.974Z,11.90
2019-04-13T10:20:10.558Z,10.40
2019-04-13T10:22:38.203Z,8.87
2019-04-13T10:25:07.943Z,9.67
2019-04-13T10:27:37.100Z,10.47
2019-04-13T10:30:06.641Z,9.37
2019-04-13T10:32:35.818Z,12.03
2019-04-13T10:35:05.180Z,11.20
2019-04-13T10:37:34.367Z,10.10
2019-04-13T10:40:03.739Z,11.57
2019-04-13T10:42:33.978Z,12.00
2019-04-13T10:45:28.226Z,12.77
2019-04-13T10:48:06.907Z,10.97
2019-04-13T10:50:55.371Z,11.07
2019-04-13T10:53:25.020Z,10.60
2019-04-13T10:55:54.251Z,10.27
2019-04-13T10:58:24.403Z,10.27
2019-04-13T11:00:53.545Z,9.47
2019-04-13T11:03:22.775Z,9.43
2019-04-13T11:05:52.149Z,11.37
2019-04-13T11:08:22.689Z,9.43
2019-04-13T11:10:53.629Z,12.17
2019-04-13T11:13:22.904Z,11.73
2019-04-13T11:15:52.272Z,12.33
2019-04-13T11:18:23.230Z,10.80
2019-04-13T11:20:52.566Z,10.70
2019-04-13T11:23:35.267Z,11.73
2019-04-13T11:25:54.398Z,9.30
2019-04-13T11:28:25.934Z,10.93
2019-04-13T11:30:56.682Z,11.30
2019-04-13T11:33:26.075Z,10.90
2019-04-13T11:35:57.024Z,12.47
2019-04-13T11:38:26.219Z,12.17
2019-04-13T11:41:05.696Z,11.23
2019-04-13T11:44:06.092Z,10.47
2019-04-13T11:46:46.150Z,9.90
2019-04-13T11:49:19.489Z,10.50
2019-04-13T11:51:48.712Z,10.90
2019-04-13T11:54:17.877Z,9.80
2019-04-13T11:56:47.168Z,10.83
2019-04-13T11:59:16.398Z,9.30
2019-04-13T12:02:11.382Z,14.60
2019-04-13T12:05:02.491Z,10.77
2019-04-13T12:07:50.246Z,14.77
2019-04-13T12:10:34.044Z,10.83
2019-04-13T12:13:22.429Z,9.00
2019-04-13T12:16:10.593Z,12.23
2019-04-13T12:19:10.660Z,12.43
2019-04-13T12:24:39.596Z,10.80
2019-04-13T12:29:45.175Z,11.33
2019-04-13T12:32:24.035Z,11.57
2019-04-13T12:34:53.073Z,10.07
2019-04-13T12:37:27.411Z,11.17
2019-04-13T12:40:04.057Z,10.90
2019-04-13T12:42:34.368Z,12.13
2019-04-13T12:45:03.745Z,9.87
2019-04-13T12:47:32.950Z,8.77
2019-04-13T12:50:02.194Z,12.93
2019-04-13T12:52:31.633Z,12.73
2019-04-13T12:55:00.791Z,15.00
2019-04-13T12:57:30.465Z,11.83
2019-04-13T13:00:01.374Z,12.80
2019-04-13T13:02:40.374Z,11.63
2019-04-13T13:05:24.033Z,12.70
2019-04-13T13:07:53.205Z,13.20
2019-04-13T13:10:25.210Z,10.80
2019-04-13T13:12:53.357Z,11.87
2019-04-13T13:15:23.175Z,11.00
2019-04-13T13:17:54.543Z,9.03
2019-04-13T13:20:23.714Z,10.77
2019-04-13T13:22:52.904Z,8.83
2019-04-13T13:25:22.203Z,10.67
2019-04-13T13:27:52.143Z,8.93
2019-04-13T13:30:21.576Z,7.07
2019-04-13T13:32:52.521Z,7.63
2019-04-13T13:35:21.680Z,8.83
2019-04-13T13:37:50.940Z,8.65
2019-04-13T13:40:31.046Z,8.78
2019-04-13T13:42:51.037Z,7.47
2019-04-13T13:45:20.241Z,8.60
2019-04-13T13:47:49.398Z,8.40
2019-04-13T13:50:22.033Z,7.85
2019-04-13T13:52:49.589Z,8.48
2019-04-13T13:55:18.798Z,10.15
2019-04-13T13:58:07.385Z,10.00
2019-04-13T14:00:50.494Z,10.13
2019-04-13T14:03:19.951Z,9.27
2019-04-13T14:05:49.206Z,9.53
2019-04-13T14:08:18.479Z,9.50
2019-04-13T14:10:48.712Z,9.20
2019-04-13T14:13:18.079Z,9.63
2019-04-13T14:15:47.217Z,8.30
2019-04-13T14:18:16.419Z,8.80
2019-04-13T14:20:45.707Z,10.13
2019-04-13T14:23:15.011Z,9.10
2019-04-13T14:28:26.499Z,9.97
2019-04-13T14:30:55.625Z,9.33
2019-04-13T14:58:33.716Z,10.10
2019-04-13T15:01:02.914Z,10.88
2019-04-13T15:03:33.205Z,9.87
2019-04-13T15:06:02.565Z,10.90
2019-04-13T15:08:31.945Z,9.00
2019-04-13T15:11:15.958Z,9.77
2019-04-13T15:13:32.299Z,9.83
2019-04-13T15:16:05.115Z,10.73
2019-04-13T15:18:56.671Z,10.47
2019-04-13T15:21:30.148Z,11.67
2019-04-13T15:23:57.839Z,12.05
2019-04-13T15:26:27.678Z,11.80
2019-04-13T15:28:58.147Z,12.47
2019-04-13T15:31:31.845Z,15.33
2019-04-13T15:34:02.017Z,15.40
2019-04-13T15:36:33.022Z,18.43
2019-04-13T15:39:05.892Z,17.70
2019-04-13T15:41:42.061Z,18.37
2019-04-13T15:44:07.515Z,19.13
2019-04-13T15:46:35.229Z,20.07
2019-04-13T15:49:04.733Z,20.87
2019-04-13T15:51:34.472Z,20.03
2019-04-13T15:54:05.407Z,19.90
2019-04-13T15:56:34.715Z,19.40
2019-04-13T15:59:04.018Z,18.73
2019-04-13T16:01:34.503Z,21.97
2019-04-13T16:04:05.786Z,20.17
2019-04-13T16:06:35.858Z,21.43
2019-04-13T16:09:43.932Z,21.07
2019-04-13T16:12:19.220Z,21.97
2019-04-13T16:14:48.476Z,24.10
2019-04-13T16:17:19.388Z,22.43
2019-04-13T16:19:48.799Z,23.90
2019-04-13T16:22:19.186Z,23.30
2019-04-13T16:24:48.471Z,24.20
2019-04-13T16:27:18.551Z,21.85
2019-04-13T16:30:06.447Z,21.97
2019-04-13T16:32:53.569Z,22.32
2019-04-13T16:35:51.671Z,23.75
2019-04-13T16:38:22.036Z,25.08
2019-04-13T16:40:52.308Z,25.20
2019-04-13T16:43:24.425Z,25.70
2019-04-13T16:46:16.368Z,24.95
2019-04-13T16:49:08.626Z,25.13
2019-04-13T16:51:50.472Z,23.52
2019-04-13T16:54:45.508Z,25.02
2019-04-13T16:57:22.158Z,25.68
2019-04-13T17:00:10.181Z,24.45
2019-04-13T17:03:03.374Z,25.55
2019-04-13T17:05:35.540Z,23.42
2019-04-13T17:08:05.571Z,26.40
2019-04-13T17:10:35.734Z,25.52
2019-04-13T17:13:05.737Z,19.75
2019-04-13T17:15:35.519Z,21.70
2019-04-13T17:18:07.842Z,22.07
2019-04-13T17:20:59.832Z,24.82
2019-04-13T17:23:58.512Z,24.63
2019-04-13T17:26:47.922Z,25.77
2019-04-13T17:29:27.461Z,24.55
2019-04-13T17:32:25.091Z,24.87
2019-04-13T17:35:03.984Z,23.02
2019-04-13T17:37:34.163Z,26.55
2019-04-13T17:40:03.919Z,31.20
2019-04-13T17:42:59.889Z,24.18
2019-04-13T17:45:48.423Z,18.77
2019-04-13T17:48:33.494Z,17.30
2019-04-13T17:51:28.593Z,18.30
2019-04-13T17:54:06.487Z,19.70
2019-04-13T17:56:36.378Z,20.25
2019-04-13T17:59:23.336Z,19.85
2019-04-13T18:02:13.742Z,19.45
2019-04-13T18:04:54.310Z,19.10
2019-04-13T18:07:46.397Z,19.52
2019-04-13T18:10:30.914Z,20.00
2019-04-13T18:13:45.320Z,19.35
2019-04-13T18:16:25.749Z,18.70
2019-04-13T18:19:02.764Z,18.60
2019-04-13T18:21:32.885Z,17.85
2019-04-13T18:24:03.691Z,19.12
2019-04-13T18:26:33.612Z,17.77
2019-04-13T18:29:03.257Z,20.25
2019-04-13T18:31:33.681Z,20.23
2019-04-13T18:34:06.019Z,19.30
2019-04-13T18:36:36.353Z,21.13
2019-04-13T18:39:09.368Z,22.07
2019-04-13T18:41:39.532Z,20.20
2019-04-13T18:44:09.502Z,21.70
2019-04-13T18:46:40.535Z,22.73
2019-04-13T18:49:11.671Z,23.90
2019-04-13T18:51:41.998Z,26.82
2019-04-13T18:54:11.607Z,26.25
2019-04-13T18:56:41.757Z,29.23
2019-04-13T18:59:11.169Z,29.20
2019-04-13T19:01:41.646Z,28.77
2019-04-13T19:04:12.379Z,31.70
2019-04-13T19:06:41.856Z,30.57
2019-04-13T19:09:13.175Z,29.57
2019-04-13T19:11:49.847Z,30.85
2019-04-13T19:14:19.188Z,29.52
2019-04-13T19:16:49.877Z,29.37
2019-04-13T19:19:19.265Z,32.57
2019-04-13T19:21:48.812Z,38.87
2019-04-13T19:24:18.009Z,43.60
2019-04-13T19:26:47.241Z,42.20
2019-04-13T19:29:16.563Z,35.90
2019-04-13T19:31:46.125Z,33.38
2019-04-13T19:34:15.364Z,28.67
2019-04-13T19:36:44.574Z,27.20
2019-04-13T19:39:13.797Z,26.17
2019-04-13T19:41:43.000Z,25.63
2019-04-13T19:44:12.253Z,27.40
2019-04-13T19:46:41.637Z,26.50
2019-04-13T19:49:10.848Z,28.17
2019-04-13T19:52:17.325Z,29.12
2019-04-13T19:54:46.670Z,27.95
2019-04-13T19:57:16.625Z,26.90
2019-04-13T19:59:47.787Z,28.52
2019-04-13T20:02:18.208Z,30.17
2019-04-13T20:04:49.310Z,33.02
2019-04-13T20:07:18.652Z,31.57
2019-04-13T20:09:47.968Z,31.02
2019-04-13T20:12:17.211Z,30.90
2019-04-13T20:14:47.966Z,32.43
2019-04-13T20:17:17.380Z,30.25
2019-04-13T20:19:47.018Z,31.07
2019-04-13T20:22:16.299Z,30.80
2019-04-13T20:24:45.924Z,29.82
2019-04-13T20:27:15.486Z,30.48
2019-04-13T20:29:45.203Z,33.25
2019-04-13T20:32:16.606Z,34.73
2019-04-13T20:34:47.064Z,33.45
2019-04-13T20:37:16.654Z,35.43
2019-04-13T20:39:52.526Z,33.10
2019-04-13T20:42:25.923Z,33.63
2019-04-13T20:44:56.070Z,35.10
2019-04-13T20:47:26.594Z,34.15
2019-04-13T20:49:56.253Z,32.03
2019-04-13T20:52:25.667Z,31.10
2019-04-13T20:54:56.000Z,31.10
2019-04-13T20:57:26.058Z,29.57
2019-04-13T20:59:56.459Z,32.73
2019-04-13T21:02:26.671Z,33.07
2019-04-13T21:04:56.777Z,35.93
2019-04-13T21:07:27.028Z,36.57
2019-04-13T21:09:56.332Z,36.43
2019-04-13T21:12:27.227Z,38.70
2019-04-13T21:14:56.802Z,33.63
2019-04-13T21:17:26.855Z,35.40
2019-04-13T21:19:56.924Z,40.28
2019-04-13T21:22:26.750Z,41.50
2019-04-13T21:24:56.962Z,37.48
2019-04-13T21:27:29.200Z,39.05
2019-04-13T21:29:58.978Z,37.98
2019-04-13T21:32:29.024Z,37.70
2019-04-13T21:34:59.345Z,35.30
2019-04-13T21:37:29.247Z,35.17
2019-04-13T21:39:59.146Z,33.80
2019-04-13T21:42:28.405Z,37.88
2019-04-13T21:44:57.578Z,35.00
2019-04-13T21:47:27.004Z,35.05
2019-04-13T21:49:58.062Z,34.95
2019-04-13T21:52:39.084Z,32.48
2019-04-13T21:55:11.471Z,33.05
2019-04-13T21:57:41.467Z,37.30
2019-04-13T22:00:15.930Z,31.45
2019-04-13T22:02:46.312Z,33.38
2019-04-13T22:05:16.033Z,32.40
2019-04-13T22:07:46.107Z,32.30
2019-04-13T22:10:15.860Z,34.67
2019-04-13T22:12:46.040Z,34.73
2019-04-13T22:15:16.057Z,34.20
2019-04-13T22:17:46.536Z,35.52
2019-04-13T22:20:16.877Z,32.85
2019-04-13T22:22:47.470Z,35.78
2019-04-13T22:25:17.029Z,36.73
2019-04-13T22:27:56.878Z,34.33
2019-04-13T22:30:19.005Z,38.88
2019-04-13T22:32:49.739Z,34.30
2019-04-13T22:35:49.935Z,33.65
2019-04-13T22:38:19.804Z,35.50
2019-04-13T22:40:49.564Z,33.98
2019-04-13T22:43:19.560Z,34.25
2019-04-13T22:45:51.275Z,35.17
2019-04-13T22:48:46.401Z,35.48
2019-04-13T22:51:44.420Z,33.92
2019-04-13T22:54:48.060Z,36.33
2019-04-13T22:57:32.485Z,37.00
2019-04-13T23:00:04.815Z,37.93
2019-04-13T23:02:54.182Z,36.68
2019-04-13T23:05:24.377Z,36.35
2019-04-13T23:07:54.686Z,33.08
2019-04-13T23:10:24.781Z,39.25
2019-04-13T23:12:55.128Z,38.38
2019-04-13T23:15:30.902Z,36.68
2019-04-13T23:17:55.344Z,35.05
2019-04-13T23:20:25.588Z,36.60
2019-04-13T23:22:54.922Z,38.53
2019-04-13T23:25:24.555Z,36.20
2019-04-13T23:27:54.886Z,36.33
2019-04-13T23:30:24.888Z,38.58
2019-04-13T23:32:55.923Z,35.43
2019-04-13T23:35:25.663Z,38.05
2019-04-13T23:37:54.902Z,36.00
2019-04-13T23:40:24.644Z,37.87
2019-04-13T23:42:55.017Z,37.42
2019-04-13T23:45:31.050Z,34.85
2019-04-13T23:47:58.371Z,32.65
2019-04-13T23:50:28.547Z,35.65
2019-04-13T23:52:58.856Z,33.85
2019-04-13T23:55:33.599Z,38.78
2019-04-13T23:58:26.098Z,37.13
